Powersville, Georgia
Current Conditions -  °F | °C
As of 2:53 PM on Sunday 23 Nov 2014 (Local Time) from KMCN Reporting Station
Haze Haze  
Wind Chill: 63°   Ceiling: 400
Heat Index: 63°   Visibility: 1.2mi
Dew Point: 63°   Wind: 7mph
Humidity: 100%   Direction: 130°SE
Pressure: 29.77"   Gusts: NA
Location:  32.6425°N, 83.775°W
Report Text: KMCN 231953Z 13006KT 1 1/4SM BR OVC004 17/17 A2977 RMK AO2 RAB1859E09 SLP078 P0001 T01720172
Loading
Personal Weather Stations






























Interactive Weather Map New forecast layout! Learn more

10-Day Weather Forecast

Advertisements
Track Severe Weather on mobile